createdAt,value
2019-01-25T00:00:29.858Z,43.80
2019-01-25T00:01:06.645Z,48.42
2019-01-25T00:01:41.256Z,42.62
2019-01-25T00:02:16.112Z,49.35
2019-01-25T00:02:50.634Z,47.98
2019-01-25T00:03:25.149Z,44.45
2019-01-25T00:03:59.650Z,33.73
2019-01-25T00:04:34.206Z,41.77
2019-01-25T00:05:09.249Z,43.92
2019-01-25T00:05:43.771Z,46.58
2019-01-25T00:06:18.423Z,40.58
2019-01-25T00:06:52.981Z,40.23
2019-01-25T00:07:27.488Z,40.63
2019-01-25T00:08:01.999Z,45.83
2019-01-25T00:08:36.504Z,39.92
2019-01-25T00:09:11.092Z,37.90
2019-01-25T00:09:45.600Z,40.30
2019-01-25T00:10:20.104Z,49.33
2019-01-25T00:10:54.611Z,41.58
2019-01-25T00:11:29.116Z,39.83
2019-01-25T00:12:03.641Z,43.65
2019-01-25T00:12:38.156Z,38.55
2019-01-25T00:13:12.679Z,38.45
2019-01-25T00:13:47.278Z,40.95
2019-01-25T00:14:21.856Z,41.80
2019-01-25T00:14:56.381Z,44.85
2019-01-25T00:15:30.888Z,44.83
2019-01-25T00:16:06.059Z,37.38
2019-01-25T00:16:40.593Z,43.30
2019-01-25T00:17:15.187Z,36.50
2019-01-25T00:17:49.785Z,33.53
2019-01-25T00:18:24.298Z,41.18
2019-01-25T00:18:58.817Z,37.42
2019-01-25T00:19:33.388Z,43.95
2019-01-25T00:20:12.665Z,43.75
2019-01-25T00:20:47.173Z,37.45
2019-01-25T00:21:21.684Z,38.85
2019-01-25T00:21:56.255Z,36.53
2019-01-25T00:22:30.770Z,37.10
2019-01-25T00:23:05.322Z,38.13
2019-01-25T00:23:39.853Z,35.60
2019-01-25T00:24:14.457Z,43.20
2019-01-25T00:24:51.898Z,40.33
2019-01-25T00:25:26.533Z,38.08
2019-01-25T00:26:01.028Z,35.80
2019-01-25T00:26:35.540Z,37.48
2019-01-25T00:27:10.075Z,35.73
2019-01-25T00:27:44.580Z,36.42
2019-01-25T00:28:19.183Z,36.88
2019-01-25T00:28:53.800Z,35.83
2019-01-25T00:29:28.363Z,34.75
2019-01-25T00:30:02.943Z,42.83
2019-01-25T00:30:37.451Z,38.45
2019-01-25T00:31:12.043Z,39.03
2019-01-25T00:31:46.635Z,34.05
2019-01-25T00:32:21.213Z,43.90
2019-01-25T00:32:55.753Z,37.00
2019-01-25T00:33:30.335Z,36.55
2019-01-25T00:34:05.005Z,42.55
2019-01-25T00:34:39.528Z,34.13
2019-01-25T00:35:14.031Z,38.40
2019-01-25T00:35:48.544Z,42.35
2019-01-25T00:36:23.166Z,43.05
2019-01-25T00:36:57.729Z,39.95
2019-01-25T00:37:32.243Z,40.20
2019-01-25T00:38:06.989Z,44.15
2019-01-25T00:38:41.501Z,40.73
2019-01-25T00:39:18.709Z,41.20
2019-01-25T00:39:53.235Z,33.15
2019-01-25T00:40:27.818Z,36.68
2019-01-25T00:41:02.316Z,40.12
2019-01-25T00:41:36.844Z,35.38
2019-01-25T00:42:11.469Z,39.92
2019-01-25T00:42:45.978Z,31.25
2019-01-25T00:43:20.576Z,43.80
2019-01-25T00:43:55.089Z,34.20
2019-01-25T00:44:29.599Z,39.30
2019-01-25T00:45:06.055Z,37.63
2019-01-25T00:45:40.562Z,35.13
2019-01-25T00:46:15.098Z,33.98
2019-01-25T00:46:49.601Z,39.63
2019-01-25T00:47:24.106Z,37.78
2019-01-25T00:47:58.616Z,35.52
2019-01-25T00:48:33.129Z,35.90
2019-01-25T00:49:07.631Z,33.00
2019-01-25T00:49:42.204Z,37.45
2019-01-25T00:50:19.439Z,44.53
2019-01-25T00:50:53.945Z,31.85
2019-01-25T00:51:28.528Z,35.52
2019-01-25T00:52:03.066Z,36.03
2019-01-25T00:52:37.573Z,41.35
2019-01-25T00:53:12.160Z,39.90
2019-01-25T00:53:46.663Z,33.42
2019-01-25T00:54:21.200Z,32.10
2019-01-25T00:54:55.812Z,42.43
2019-01-25T00:55:30.325Z,41.92
2019-01-25T00:56:05.772Z,41.98
2019-01-25T00:56:40.285Z,41.33
2019-01-25T00:57:14.828Z,37.20
2019-01-25T00:57:49.345Z,45.43
2019-01-25T00:58:23.856Z,38.08
2019-01-25T00:58:58.370Z,34.92
2019-01-25T00:59:32.959Z,38.83
2019-01-25T01:00:13.288Z,35.03
2019-01-25T01:00:47.797Z,39.03
2019-01-25T01:01:22.320Z,30.17
2019-01-25T01:01:56.897Z,34.58
2019-01-25T01:02:31.472Z,37.30
2019-01-25T01:03:06.887Z,36.45
2019-01-25T01:03:41.422Z,35.30
2019-01-25T01:04:15.929Z,39.20
2019-01-25T01:04:51.950Z,43.02
2019-01-25T01:05:45.801Z,40.23
2019-01-25T01:06:20.320Z,36.55
2019-01-25T01:06:54.819Z,37.48
2019-01-25T01:07:29.337Z,37.63
2019-01-25T01:08:04.579Z,39.20
2019-01-25T01:08:39.091Z,38.65
2019-01-25T01:09:13.678Z,40.03
2019-01-25T01:09:48.185Z,39.23
2019-01-25T01:10:22.824Z,42.13
2019-01-25T01:10:57.341Z,37.63
2019-01-25T01:11:31.916Z,37.95
2019-01-25T01:12:06.431Z,42.27
2019-01-25T01:12:41.030Z,37.78
2019-01-25T01:13:15.587Z,33.33
2019-01-25T01:13:50.121Z,33.55
2019-01-25T01:14:24.688Z,36.65
2019-01-25T01:14:59.231Z,42.50
2019-01-25T01:15:33.826Z,44.63
2019-01-25T01:16:11.534Z,45.70
2019-01-25T01:16:46.169Z,40.52
2019-01-25T01:17:20.672Z,36.23
2019-01-25T01:17:55.201Z,33.73
2019-01-25T01:18:29.717Z,36.50
2019-01-25T01:19:04.448Z,41.65
2019-01-25T01:19:39.051Z,47.00
2019-01-25T01:20:15.884Z,40.52
2019-01-25T01:20:50.410Z,36.58
2019-01-25T01:21:24.919Z,38.85
2019-01-25T01:21:59.434Z,36.25
2019-01-25T01:22:34.019Z,42.13
2019-01-25T01:23:08.552Z,42.33
2019-01-25T01:23:43.152Z,47.45
2019-01-25T01:24:17.647Z,43.60
2019-01-25T01:24:52.168Z,37.35
2019-01-25T01:25:26.749Z,38.50
2019-01-25T01:26:01.344Z,38.98
2019-01-25T01:26:35.924Z,47.58
2019-01-25T01:27:10.438Z,44.88
2019-01-25T01:27:45.010Z,40.03
2019-01-25T01:28:19.521Z,41.30
2019-01-25T01:28:54.020Z,48.45
2019-01-25T01:29:28.541Z,38.50
2019-01-25T01:30:04.887Z,33.75
2019-01-25T01:30:39.459Z,34.53
2019-01-25T01:31:13.981Z,40.88
2019-01-25T01:31:48.488Z,40.80
2019-01-25T01:32:23.017Z,36.25
2019-01-25T01:32:57.626Z,44.48
2019-01-25T01:33:32.203Z,39.83
2019-01-25T01:34:06.772Z,41.90
2019-01-25T01:34:41.282Z,42.25
2019-01-25T01:35:15.791Z,34.98
2019-01-25T01:35:50.326Z,35.00
2019-01-25T01:36:24.843Z,40.48
2019-01-25T01:36:59.348Z,37.20
2019-01-25T01:37:33.859Z,38.80
2019-01-25T01:38:08.595Z,37.63
2019-01-25T01:38:43.096Z,45.20
2019-01-25T01:39:17.605Z,41.73
2019-01-25T01:39:52.123Z,39.35
2019-01-25T01:40:26.627Z,35.45
2019-01-25T01:41:01.141Z,37.50
2019-01-25T01:41:35.712Z,39.25
2019-01-25T01:42:10.215Z,43.83
2019-01-25T01:42:44.774Z,35.88
2019-01-25T01:43:19.358Z,37.08
2019-01-25T01:43:53.948Z,34.03
2019-01-25T01:44:28.474Z,46.18
2019-01-25T01:45:03.103Z,42.00
2019-01-25T01:45:37.616Z,37.40
2019-01-25T01:46:12.136Z,41.28
2019-01-25T01:46:46.647Z,40.63
2019-01-25T01:47:21.157Z,42.83
2019-01-25T01:47:55.685Z,38.10
2019-01-25T01:48:30.188Z,44.93
2019-01-25T01:49:04.937Z,42.67
2019-01-25T01:49:39.483Z,32.73
2019-01-25T01:50:16.033Z,42.58
2019-01-25T01:50:50.532Z,49.00
2019-01-25T01:51:25.052Z,42.95
2019-01-25T01:51:59.581Z,43.45
2019-01-25T01:52:34.082Z,48.13
2019-01-25T01:53:08.691Z,44.73
2019-01-25T01:53:43.208Z,42.17
2019-01-25T01:54:17.821Z,34.80
2019-01-25T01:54:52.373Z,40.45
2019-01-25T01:55:26.909Z,42.55
2019-01-25T01:56:01.497Z,41.65
2019-01-25T01:56:36.312Z,42.85
2019-01-25T01:57:11.009Z,44.38
2019-01-25T01:57:45.705Z,36.90
2019-01-25T01:58:20.270Z,46.13
2019-01-25T01:58:54.781Z,41.80
2019-01-25T01:59:29.292Z,38.50
2019-01-25T02:00:06.092Z,39.08
2019-01-25T02:00:40.657Z,44.73
2019-01-25T02:01:15.181Z,45.28
2019-01-25T02:01:49.760Z,45.17
2019-01-25T02:02:24.678Z,39.85
2019-01-25T02:02:59.251Z,54.08
2019-01-25T02:03:33.780Z,46.20
2019-01-25T02:04:08.356Z,44.18
2019-01-25T02:04:42.936Z,40.05
2019-01-25T02:05:19.034Z,50.05
2019-01-25T02:05:53.543Z,42.98
2019-01-25T02:06:28.084Z,47.53
2019-01-25T02:07:02.607Z,45.17
2019-01-25T02:07:37.167Z,49.13
2019-01-25T02:08:11.708Z,41.80
2019-01-25T02:08:46.222Z,48.13
2019-01-25T02:09:20.718Z,44.18
2019-01-25T02:09:55.236Z,42.62
2019-01-25T02:10:30.126Z,42.50
2019-01-25T02:11:05.108Z,39.55
2019-01-25T02:11:39.659Z,43.40
2019-01-25T02:12:14.245Z,44.20
2019-01-25T02:12:48.877Z,41.68
2019-01-25T02:13:23.469Z,46.13
2019-01-25T02:13:58.346Z,44.27
2019-01-25T02:14:32.863Z,41.50
2019-01-25T02:15:10.091Z,40.08
2019-01-25T02:15:44.597Z,43.87
2019-01-25T02:16:19.191Z,40.63
2019-01-25T02:16:53.709Z,41.77
2019-01-25T02:17:28.211Z,42.83
2019-01-25T02:18:02.721Z,43.83
2019-01-25T02:18:38.872Z,44.98
2019-01-25T02:19:13.431Z,45.00
2019-01-25T02:19:47.948Z,47.62
2019-01-25T02:20:25.162Z,47.70
2019-01-25T02:20:59.692Z,42.25
2019-01-25T02:21:34.268Z,48.02
2019-01-25T02:22:08.787Z,38.45
2019-01-25T02:22:43.344Z,34.70
2019-01-25T02:23:17.931Z,47.60
2019-01-25T02:23:52.511Z,47.27
2019-01-25T02:24:27.022Z,44.93
2019-01-25T02:25:01.540Z,45.88
2019-01-25T02:25:55.483Z,42.58
2019-01-25T02:26:30.380Z,48.65
2019-01-25T02:27:04.965Z,46.18
2019-01-25T02:27:39.618Z,41.42
2019-01-25T02:28:14.126Z,42.73
2019-01-25T02:28:48.655Z,42.20
2019-01-25T02:29:25.815Z,44.20
2019-01-25T02:29:59.473Z,50.30
2019-01-25T02:30:34.026Z,47.90
2019-01-25T02:31:08.912Z,46.90
2019-01-25T02:31:43.484Z,49.65
2019-01-25T02:32:18.070Z,48.60
2019-01-25T02:32:52.816Z,44.55
2019-01-25T02:33:27.322Z,40.85
2019-01-25T02:34:01.840Z,40.85
2019-01-25T02:34:36.368Z,45.75
2019-01-25T02:35:11.281Z,38.33
2019-01-25T02:35:45.827Z,45.92
2019-01-25T02:36:20.350Z,43.52
2019-01-25T02:36:54.858Z,47.98
2019-01-25T02:37:29.370Z,44.40
2019-01-25T02:38:04.131Z,39.23
2019-01-25T02:38:38.642Z,53.23
2019-01-25T02:39:13.216Z,42.62
2019-01-25T02:39:48.099Z,45.35
2019-01-25T02:40:24.225Z,46.80
2019-01-25T02:40:58.744Z,42.05
2019-01-25T02:41:33.295Z,43.87
2019-01-25T02:42:07.793Z,41.35
2019-01-25T02:42:42.300Z,47.03
2019-01-25T02:43:16.812Z,42.38
2019-01-25T02:43:51.313Z,41.40
2019-01-25T02:44:25.829Z,43.20
2019-01-25T02:45:00.340Z,44.98
2019-01-25T02:45:34.953Z,48.48
2019-01-25T02:46:09.609Z,36.53
2019-01-25T02:46:44.138Z,44.10
2019-01-25T02:47:18.659Z,43.68
2019-01-25T02:47:53.187Z,51.13
2019-01-25T02:48:27.712Z,37.65
2019-01-25T02:49:02.272Z,45.75
2019-01-25T02:49:36.785Z,42.20
2019-01-25T02:50:14.319Z,45.58
2019-01-25T02:50:49.032Z,39.98
2019-01-25T02:51:24.735Z,42.88
2019-01-25T02:51:59.257Z,36.45
2019-01-25T02:52:33.763Z,40.03
2019-01-25T02:53:08.362Z,43.48
2019-01-25T02:53:42.873Z,43.15
2019-01-25T02:54:17.458Z,35.08
2019-01-25T02:54:52.280Z,43.38
2019-01-25T02:55:26.820Z,37.42
2019-01-25T02:56:01.337Z,39.78
2019-01-25T02:56:35.845Z,42.20
2019-01-25T02:57:10.393Z,35.88
2019-01-25T02:57:44.946Z,47.73
2019-01-25T02:58:19.453Z,35.40
2019-01-25T02:58:53.995Z,33.35
2019-01-25T02:59:28.596Z,36.90
2019-01-25T03:00:04.817Z,34.60
2019-01-25T03:00:40.008Z,41.23
2019-01-25T03:01:14.870Z,37.95
2019-01-25T03:01:49.373Z,33.95
2019-01-25T03:02:23.888Z,36.63
2019-01-25T03:02:58.557Z,38.17
2019-01-25T03:03:33.135Z,42.60
2019-01-25T03:04:07.882Z,40.78
2019-01-25T03:04:42.440Z,34.70
2019-01-25T03:05:18.693Z,38.23
2019-01-25T03:05:53.229Z,37.60
2019-01-25T03:06:27.817Z,42.65
2019-01-25T03:07:02.345Z,48.98
2019-01-25T03:07:36.952Z,35.95
2019-01-25T03:08:11.521Z,40.28
2019-01-25T03:08:46.758Z,43.65
2019-01-25T03:09:21.548Z,41.83
2019-01-25T03:09:56.064Z,39.25
2019-01-25T03:10:30.601Z,40.90
2019-01-25T03:11:05.208Z,39.08
2019-01-25T03:11:39.865Z,40.73
2019-01-25T03:12:14.373Z,47.15
2019-01-25T03:12:48.886Z,38.35
2019-01-25T03:13:23.385Z,39.45
2019-01-25T03:13:57.930Z,41.42
2019-01-25T03:14:32.443Z,31.42
2019-01-25T03:15:12.708Z,37.17
2019-01-25T03:15:47.225Z,37.38
2019-01-25T03:16:21.815Z,41.58
2019-01-25T03:16:56.401Z,40.10
2019-01-25T03:17:30.948Z,38.90
2019-01-25T03:18:07.368Z,35.90
2019-01-25T03:18:41.903Z,33.63
2019-01-25T03:19:16.560Z,36.50
2019-01-25T03:19:51.064Z,37.65
2019-01-25T03:20:25.591Z,39.53
2019-01-25T03:21:00.118Z,35.52
2019-01-25T03:21:34.702Z,29.42
2019-01-25T03:22:09.243Z,36.03
2019-01-25T03:22:43.833Z,36.60
2019-01-25T03:23:18.460Z,36.98
2019-01-25T03:23:53.045Z,34.00
2019-01-25T03:24:27.632Z,33.50
2019-01-25T03:25:02.151Z,38.58
2019-01-25T03:25:36.784Z,36.33
2019-01-25T03:26:11.313Z,37.88
2019-01-25T03:26:45.893Z,34.53
2019-01-25T03:27:20.490Z,33.18
2019-01-25T03:27:55.102Z,36.73
2019-01-25T03:28:29.690Z,32.98
2019-01-25T03:29:04.281Z,33.45
2019-01-25T03:29:38.788Z,35.95
2019-01-25T03:30:21.377Z,37.45
2019-01-25T03:30:55.949Z,34.25
2019-01-25T03:31:30.569Z,31.73
2019-01-25T03:32:05.320Z,34.00
2019-01-25T03:32:39.889Z,31.82
2019-01-25T03:33:14.436Z,28.95
2019-01-25T03:33:49.022Z,31.73
2019-01-25T03:34:23.615Z,30.80
2019-01-25T03:34:58.196Z,29.37
2019-01-25T03:35:32.767Z,33.20
2019-01-25T03:36:07.645Z,32.23
2019-01-25T03:36:42.154Z,31.50
2019-01-25T03:37:16.669Z,27.20
2019-01-25T03:37:51.882Z,31.00
2019-01-25T03:38:26.401Z,25.12
2019-01-25T03:39:00.932Z,23.42
2019-01-25T03:39:35.458Z,27.77
2019-01-25T03:40:13.179Z,21.93
2019-01-25T03:40:54.774Z,27.00
2019-01-25T03:41:24.024Z,42.95
2019-01-25T03:41:58.603Z,25.82
2019-01-25T03:42:33.120Z,30.40
2019-01-25T03:43:07.631Z,29.75
2019-01-25T03:43:42.210Z,25.72
2019-01-25T03:44:19.465Z,32.53
2019-01-25T03:44:53.969Z,31.48
2019-01-25T03:45:28.808Z,30.97
2019-01-25T03:46:03.310Z,22.48
2019-01-25T03:46:37.826Z,34.98
2019-01-25T03:47:12.326Z,37.88
2019-01-25T03:47:47.382Z,31.65
2019-01-25T03:48:22.002Z,31.70
2019-01-25T03:48:56.551Z,30.95
2019-01-25T03:49:31.062Z,27.05
2019-01-25T03:50:11.819Z,30.10
2019-01-25T03:50:46.396Z,31.35
2019-01-25T03:51:20.901Z,31.75
2019-01-25T03:51:55.421Z,28.17
2019-01-25T03:52:29.921Z,30.10
2019-01-25T03:53:04.456Z,32.45
2019-01-25T03:53:38.972Z,32.58
2019-01-25T03:54:13.476Z,33.70
2019-01-25T03:54:47.980Z,26.73
2019-01-25T03:55:22.725Z,29.27
2019-01-25T03:55:57.274Z,30.82
2019-01-25T03:56:31.784Z,28.87
2019-01-25T03:57:06.286Z,30.50
2019-01-25T03:57:40.785Z,29.27
2019-01-25T03:58:15.293Z,26.75
2019-01-25T03:58:49.800Z,32.53
2019-01-25T03:59:24.353Z,26.02
2019-01-25T03:59:58.940Z,24.55
2019-01-25T04:00:33.449Z,24.00
2019-01-25T04:01:08.021Z,28.25
2019-01-25T04:01:42.587Z,27.87
2019-01-25T04:02:17.121Z,27.55
2019-01-25T04:02:51.700Z,34.13
2019-01-25T04:03:27.734Z,26.37
2019-01-25T04:04:02.377Z,29.82
2019-01-25T04:04:36.959Z,27.95
2019-01-25T04:05:13.910Z,30.60
2019-01-25T04:05:48.426Z,24.57
2019-01-25T04:06:22.940Z,27.42
2019-01-25T04:06:57.462Z,30.65
2019-01-25T04:07:32.031Z,36.00
2019-01-25T04:08:06.681Z,27.62
2019-01-25T04:08:41.210Z,32.58
2019-01-25T04:09:15.783Z,28.02
2019-01-25T04:09:50.290Z,27.20
2019-01-25T04:10:27.028Z,34.50
2019-01-25T04:11:03.868Z,26.65
2019-01-25T04:11:37.842Z,27.90
2019-01-25T04:12:12.710Z,30.62
2019-01-25T04:12:47.523Z,28.40
2019-01-25T04:13:22.030Z,27.85
2019-01-25T04:13:56.551Z,25.12
2019-01-25T04:14:31.131Z,29.60
2019-01-25T04:15:08.756Z,27.77
2019-01-25T04:15:43.279Z,30.50
2019-01-25T04:16:17.853Z,26.87
2019-01-25T04:16:52.366Z,31.15
2019-01-25T04:17:26.884Z,25.72
2019-01-25T04:18:01.733Z,30.80
2019-01-25T04:18:36.252Z,27.93
2019-01-25T04:19:10.781Z,29.23
2019-01-25T04:19:45.281Z,28.42
2019-01-25T04:20:21.678Z,26.62
2019-01-25T04:20:56.217Z,31.55
2019-01-25T04:21:30.728Z,32.67
2019-01-25T04:22:05.572Z,33.23
2019-01-25T04:22:40.078Z,29.25
2019-01-25T04:23:14.589Z,28.65
2019-01-25T04:23:49.116Z,25.57
2019-01-25T04:24:23.636Z,28.15
2019-01-25T04:24:58.226Z,29.12
2019-01-25T04:25:32.752Z,26.60
2019-01-25T04:26:07.257Z,30.70
2019-01-25T04:26:41.764Z,31.42
2019-01-25T04:27:16.282Z,31.68
2019-01-25T04:27:51.918Z,21.50
2019-01-25T04:28:26.571Z,29.87
2019-01-25T04:29:01.145Z,29.72
2019-01-25T04:29:35.660Z,30.55
2019-01-25T04:30:26.994Z,32.73
2019-01-25T04:31:01.599Z,28.65
2019-01-25T04:31:36.170Z,25.60
2019-01-25T04:32:10.833Z,30.48
2019-01-25T04:32:45.374Z,24.52
2019-01-25T04:33:19.976Z,23.20
2019-01-25T04:33:54.548Z,29.05
2019-01-25T04:34:29.450Z,32.75
2019-01-25T04:35:05.497Z,23.55
2019-01-25T04:35:40.016Z,25.27
2019-01-25T04:36:14.632Z,28.62
2019-01-25T04:36:49.241Z,26.75
2019-01-25T04:37:23.754Z,24.27
2019-01-25T04:37:58.337Z,26.95
2019-01-25T04:38:32.838Z,23.18
2019-01-25T04:39:08.405Z,25.30
2019-01-25T04:39:43.057Z,27.13
2019-01-25T04:40:18.703Z,27.20
2019-01-25T04:40:53.297Z,21.02
2019-01-25T04:41:27.873Z,22.98
2019-01-25T04:42:02.425Z,20.17
2019-01-25T04:42:36.993Z,25.15
2019-01-25T04:43:11.576Z,21.35
2019-01-25T04:43:46.088Z,24.05
2019-01-25T04:44:20.593Z,23.20
2019-01-25T04:44:55.151Z,21.33
2019-01-25T04:45:29.957Z,22.70
2019-01-25T04:46:04.690Z,24.80
2019-01-25T04:46:39.316Z,24.35
2019-01-25T04:47:13.862Z,30.48
2019-01-25T04:47:51.927Z,21.97
2019-01-25T04:48:26.523Z,21.30
2019-01-25T04:49:01.318Z,25.60
2019-01-25T04:49:36.541Z,25.85
2019-01-25T04:50:16.616Z,22.73
2019-01-25T04:50:51.476Z,27.22
2019-01-25T04:51:26.074Z,28.30
2019-01-25T04:52:00.681Z,25.15
2019-01-25T04:52:35.266Z,27.73
2019-01-25T04:53:09.845Z,28.67
2019-01-25T04:53:44.361Z,27.50
2019-01-25T04:54:18.886Z,21.77
2019-01-25T04:54:53.461Z,23.85
2019-01-25T04:55:31.050Z,22.80
2019-01-25T04:56:05.953Z,25.55
2019-01-25T04:56:40.608Z,23.20
2019-01-25T04:57:15.132Z,27.00
2019-01-25T04:57:49.986Z,20.57
2019-01-25T04:58:24.517Z,25.80
2019-01-25T04:58:59.039Z,25.80
2019-01-25T04:59:33.594Z,27.22
2019-01-25T05:00:13.364Z,27.07
2019-01-25T05:00:48.149Z,25.77
2019-01-25T05:01:22.662Z,25.60
2019-01-25T05:01:57.236Z,24.90
2019-01-25T05:02:31.748Z,25.72
2019-01-25T05:03:06.516Z,22.52
2019-01-25T05:03:41.035Z,22.13
2019-01-25T05:04:15.610Z,24.18
2019-01-25T05:04:50.156Z,23.10
2019-01-25T05:05:25.103Z,19.40
2019-01-25T05:05:59.614Z,23.73
2019-01-25T05:06:34.208Z,26.87
2019-01-25T05:07:08.782Z,26.48
2019-01-25T05:07:43.375Z,23.27
2019-01-25T05:08:19.038Z,18.27
2019-01-25T05:08:53.696Z,22.22
2019-01-25T05:09:29.735Z,26.75
2019-01-25T05:10:05.677Z,29.45
2019-01-25T05:10:40.343Z,22.98
2019-01-25T05:11:19.973Z,20.35
2019-01-25T05:11:52.182Z,18.65
2019-01-25T05:12:26.762Z,23.12
2019-01-25T05:13:01.350Z,20.35
2019-01-25T05:13:35.915Z,28.77
2019-01-25T05:14:10.428Z,26.52
2019-01-25T05:14:44.935Z,25.97
2019-01-25T05:15:19.668Z,24.45
2019-01-25T05:15:54.244Z,24.15
2019-01-25T05:16:28.776Z,27.05
2019-01-25T05:17:03.364Z,25.48
2019-01-25T05:17:37.959Z,23.50
2019-01-25T05:18:12.613Z,25.85
2019-01-25T05:18:47.126Z,27.42
2019-01-25T05:19:21.716Z,25.52
2019-01-25T05:19:56.315Z,26.25
2019-01-25T05:20:30.954Z,24.35
2019-01-25T05:21:05.487Z,23.80
2019-01-25T05:21:39.998Z,26.55
2019-01-25T05:22:14.840Z,25.88
2019-01-25T05:22:54.552Z,23.80
2019-01-25T05:23:29.141Z,24.07
2019-01-25T05:24:09.717Z,22.15
2019-01-25T05:24:44.242Z,19.15
2019-01-25T05:25:21.924Z,21.70
2019-01-25T05:25:56.455Z,28.23
2019-01-25T05:26:30.961Z,23.90
2019-01-25T05:27:05.715Z,23.95
2019-01-25T05:27:40.237Z,21.50
2019-01-25T05:28:16.784Z,22.40
2019-01-25T05:28:51.347Z,22.67
2019-01-25T05:29:29.009Z,25.12
2019-01-25T05:30:05.160Z,27.00
2019-01-25T05:30:59.483Z,21.50
2019-01-25T05:31:34.024Z,24.50
2019-01-25T05:32:08.619Z,27.00
2019-01-25T05:32:43.131Z,26.25
2019-01-25T05:33:18.153Z,23.30
2019-01-25T05:33:53.145Z,20.48
2019-01-25T05:34:27.747Z,25.23
2019-01-25T05:35:02.303Z,24.63
2019-01-25T05:35:37.791Z,23.10
2019-01-25T05:36:21.554Z,24.75
2019-01-25T05:36:56.094Z,23.52
2019-01-25T05:37:30.600Z,24.35
2019-01-25T05:38:05.576Z,23.70
2019-01-25T05:38:44.073Z,18.25
2019-01-25T05:39:18.657Z,20.15
2019-01-25T05:39:53.268Z,23.50
2019-01-25T05:40:27.783Z,21.48
2019-01-25T05:41:03.837Z,28.32
2019-01-25T05:41:38.404Z,22.32
2019-01-25T05:42:13.087Z,29.57
2019-01-25T05:42:47.696Z,22.62
2019-01-25T05:43:22.203Z,22.65
2019-01-25T05:43:56.732Z,31.55
2019-01-25T05:44:31.285Z,24.15
2019-01-25T05:45:14.840Z,26.33
2019-01-25T05:45:51.086Z,27.35
2019-01-25T05:46:25.705Z,24.72
2019-01-25T05:47:02.643Z,22.75
2019-01-25T05:47:37.214Z,21.00
2019-01-25T05:48:11.753Z,24.80
2019-01-25T05:49:07.813Z,26.85
2019-01-25T05:49:42.325Z,19.65
2019-01-25T05:50:18.177Z,23.73
2019-01-25T05:50:55.805Z,19.50
2019-01-25T05:51:33.682Z,24.45
2019-01-25T05:52:10.866Z,23.40
2019-01-25T05:52:45.798Z,21.00
2019-01-25T05:53:20.341Z,22.82
2019-01-25T05:53:54.902Z,25.92
2019-01-25T05:54:29.414Z,21.62
2019-01-25T05:55:06.328Z,25.57
2019-01-25T05:55:41.093Z,30.12
2019-01-25T05:56:15.673Z,20.50
2019-01-25T05:56:50.389Z,23.62
2019-01-25T05:57:24.895Z,30.10
2019-01-25T05:58:05.039Z,22.25
2019-01-25T05:58:39.644Z,21.75
2019-01-25T05:59:14.142Z,24.02
2019-01-25T05:59:48.669Z,17.95
2019-01-25T06:00:24.848Z,21.27
2019-01-25T06:01:00.157Z,20.02
2019-01-25T06:01:34.729Z,19.42
2019-01-25T06:02:09.260Z,23.90
2019-01-25T06:02:43.987Z,25.30
2019-01-25T06:03:18.581Z,26.90
2019-01-25T06:03:53.097Z,22.07
2019-01-25T06:04:33.255Z,18.42
2019-01-25T06:05:11.297Z,28.20
2019-01-25T06:05:45.801Z,21.10
2019-01-25T06:06:20.394Z,23.52
2019-01-25T06:06:54.914Z,21.90
2019-01-25T06:07:29.499Z,23.85
2019-01-25T06:08:08.763Z,25.68
2019-01-25T06:08:44.090Z,25.85
2019-01-25T06:09:21.882Z,23.50
2019-01-25T06:09:56.498Z,19.50
2019-01-25T06:10:32.842Z,24.43
2019-01-25T06:11:07.566Z,22.30
2019-01-25T06:11:42.230Z,22.17
2019-01-25T06:12:19.750Z,23.40
2019-01-25T06:12:54.276Z,19.07
2019-01-25T06:13:28.810Z,19.48
2019-01-25T06:14:04.134Z,25.82
2019-01-25T06:14:38.640Z,22.62
2019-01-25T06:15:14.222Z,18.70
2019-01-25T06:15:48.797Z,29.25
2019-01-25T06:16:23.363Z,24.35
2019-01-25T06:16:57.890Z,23.42
2019-01-25T06:17:33.254Z,23.42
2019-01-25T06:18:07.777Z,24.43
2019-01-25T06:18:42.357Z,26.85
2019-01-25T06:19:17.045Z,18.85
2019-01-25T06:19:51.670Z,22.40
2019-01-25T06:20:26.459Z,20.90
2019-01-25T06:21:01.659Z,24.05
2019-01-25T06:21:36.275Z,26.33
2019-01-25T06:22:10.986Z,21.97
2019-01-25T06:22:45.504Z,24.50
2019-01-25T06:23:20.064Z,22.27
2019-01-25T06:23:54.914Z,23.12
2019-01-25T06:24:29.424Z,22.82
2019-01-25T06:25:05.977Z,23.32
2019-01-25T06:25:44.229Z,24.40
2019-01-25T06:26:18.844Z,25.17
2019-01-25T06:26:53.529Z,20.30
2019-01-25T06:27:29.953Z,25.23
2019-01-25T06:28:06.351Z,26.65
2019-01-25T06:28:40.982Z,27.42
2019-01-25T06:29:15.487Z,24.07
2019-01-25T06:29:50.066Z,28.12
2019-01-25T06:30:24.584Z,20.80
2019-01-25T06:30:59.179Z,23.57
2019-01-25T06:31:33.713Z,22.48
2019-01-25T06:32:08.303Z,23.42
2019-01-25T06:32:42.812Z,21.85
2019-01-25T06:33:17.335Z,19.23
2019-01-25T06:33:52.118Z,21.55
2019-01-25T06:34:26.657Z,25.62
2019-01-25T06:35:01.350Z,18.50
2019-01-25T06:35:35.920Z,24.77
2019-01-25T06:36:10.419Z,25.17
2019-01-25T06:36:44.991Z,25.50
2019-01-25T06:37:19.541Z,25.52
2019-01-25T06:37:54.112Z,27.02
2019-01-25T06:38:28.655Z,25.95
2019-01-25T06:39:06.468Z,28.77
2019-01-25T06:39:41.000Z,23.95
2019-01-25T06:40:16.167Z,21.85
2019-01-25T06:40:50.832Z,22.40
2019-01-25T06:41:25.353Z,23.98
2019-01-25T06:41:59.863Z,24.35
2019-01-25T06:42:34.395Z,22.95
2019-01-25T06:43:08.969Z,25.50
2019-01-25T06:43:43.481Z,24.70
2019-01-25T06:44:18.047Z,26.48
2019-01-25T06:44:52.579Z,23.45
2019-01-25T06:45:27.215Z,24.77
2019-01-25T06:46:01.762Z,22.07
2019-01-25T06:46:36.336Z,25.15
2019-01-25T06:47:10.871Z,21.57
2019-01-25T06:47:45.416Z,25.65
2019-01-25T06:48:20.113Z,24.87
2019-01-25T06:48:54.640Z,26.50
2019-01-25T06:49:29.241Z,25.12
2019-01-25T06:50:06.911Z,24.23
2019-01-25T06:50:41.625Z,25.72
2019-01-25T06:51:16.217Z,23.45
2019-01-25T06:51:50.849Z,21.12
2019-01-25T06:52:25.492Z,22.80
2019-01-25T06:53:00.011Z,25.90
2019-01-25T06:53:34.568Z,23.70
2019-01-25T06:54:09.082Z,28.12
2019-01-25T06:54:43.590Z,22.65
2019-01-25T06:55:18.106Z,24.55
2019-01-25T06:55:52.631Z,24.45
2019-01-25T06:56:27.249Z,25.50
2019-01-25T06:57:03.432Z,21.97
2019-01-25T06:57:39.749Z,26.97
2019-01-25T06:58:16.272Z,22.45
2019-01-25T06:59:01.524Z,27.27
2019-01-25T06:59:36.125Z,23.12
2019-01-25T07:00:17.437Z,23.73
2019-01-25T07:01:09.845Z,22.85
2019-01-25T07:01:46.066Z,25.85
2019-01-25T07:02:20.980Z,23.83
2019-01-25T07:02:55.728Z,20.90
2019-01-25T07:03:30.409Z,27.48
2019-01-25T07:04:05.517Z,17.90
2019-01-25T07:04:40.026Z,30.77
2019-01-25T07:05:14.721Z,21.95
2019-01-25T07:05:49.259Z,24.55
2019-01-25T07:06:23.823Z,20.17
2019-01-25T07:06:58.426Z,22.75
2019-01-25T07:07:33.626Z,23.22
2019-01-25T07:08:09.841Z,21.50
2019-01-25T07:08:44.490Z,24.40
2019-01-25T07:09:19.519Z,24.27
2019-01-25T07:09:54.067Z,20.43
2019-01-25T07:10:28.933Z,22.50
2019-01-25T07:11:03.849Z,23.42
2019-01-25T07:11:42.241Z,20.70
2019-01-25T07:12:16.520Z,22.40
2019-01-25T07:12:51.036Z,20.85
2019-01-25T07:13:25.564Z,27.48
2019-01-25T07:14:00.588Z,21.05
2019-01-25T07:14:35.113Z,25.20
2019-01-25T07:15:12.170Z,22.50
2019-01-25T07:15:46.774Z,19.35
2019-01-25T07:16:21.284Z,23.42
2019-01-25T07:16:55.824Z,25.82
2019-01-25T07:17:30.363Z,19.87
2019-01-25T07:18:05.008Z,23.47
2019-01-25T07:18:39.591Z,24.20
2019-01-25T07:19:14.101Z,32.08
2019-01-25T07:19:48.645Z,28.17
2019-01-25T07:20:23.221Z,23.73
2019-01-25T07:20:57.759Z,23.35
2019-01-25T07:21:32.332Z,20.43
2019-01-25T07:22:06.842Z,27.00
2019-01-25T07:22:41.343Z,27.22
2019-01-25T07:23:15.875Z,26.23
2019-01-25T07:23:50.396Z,23.45
2019-01-25T07:24:24.987Z,24.72
2019-01-25T07:24:59.483Z,23.35
2019-01-25T07:25:34.056Z,24.80
2019-01-25T07:26:08.728Z,25.60
2019-01-25T07:26:43.266Z,21.97
2019-01-25T07:27:17.776Z,26.62
2019-01-25T07:27:52.284Z,25.25
2019-01-25T07:28:26.795Z,23.75
2019-01-25T07:29:01.406Z,29.67
2019-01-25T07:29:36.024Z,26.07
2019-01-25T07:30:13.748Z,22.05
2019-01-25T07:30:48.294Z,23.35
2019-01-25T07:31:23.068Z,24.20
2019-01-25T07:31:57.785Z,24.45